Time;durP1;ratioP1;P1;durP2;ratioP2;P2;SDS_P1;SDS_P2;PMS_P1;PMS_P2;Temp;Humidity;BMP_temperature;BMP_pressure;BME280_temperature;BME280_humidity;BME280_pressure;Samples;Min_cycle;Max_cycle;Signal;HPM_P1;HPM_P2
2022/06/25 00:00:58;;;;;;;28.45;25.75;;;19.00;99.90;;;;;;5054598;28;20112;-77
2022/06/25 00:03:24;;;;;;;27.73;24.88;;;18.40;99.90;;;;;;5052378;28;20032;-76
2022/06/25 00:05:49;;;;;;;27.58;24.92;;;18.40;99.90;;;;;;5055016;28;20487;-78
2022/06/25 00:08:15;;;;;;;29.05;26.33;;;18.40;99.90;;;;;;5085897;28;20482;-78
2022/06/25 00:10:40;;;;;;;27.38;24.95;;;18.50;99.90;;;;;;5070227;28;20437;-77
2022/06/25 00:13:06;;;;;;;29.10;26.17;;;18.40;99.90;;;;;;5067540;28;20444;-77
2022/06/25 00:15:32;;;;;;;29.08;26.45;;;18.40;99.90;;;;;;5069300;28;20646;-78
2022/06/25 00:17:58;;;;;;;29.90;27.30;;;18.40;99.90;;;;;;5051626;28;20051;-78
2022/06/25 00:20:24;;;;;;;33.60;30.40;;;18.40;99.90;;;;;;5071025;28;20043;-76
2022/06/25 00:22:50;;;;;;;28.55;25.92;;;18.40;99.90;;;;;;5089715;28;20039;-77
2022/06/25 00:25:15;;;;;;;28.38;25.70;;;18.40;99.90;;;;;;5069613;28;20048;-76
2022/06/25 00:27:41;;;;;;;28.90;26.08;;;18.50;99.90;;;;;;5072039;28;20044;-78
2022/06/25 00:30:07;;;;;;;27.85;25.35;;;18.80;99.90;;;;;;5068003;28;20044;-77
2022/06/25 00:32:34;;;;;;;26.90;24.35;;;18.40;99.90;;;;;;5072239;28;20055;-77
2022/06/25 00:34:59;;;;;;;24.33;22.02;;;19.10;99.90;;;;;;5046499;28;20071;-78
2022/06/25 00:37:25;;;;;;;28.08;25.15;;;18.40;99.90;;;;;;5090110;28;20189;-77
2022/06/25 00:39:51;;;;;;;25.15;23.00;;;18.40;99.90;;;;;;5063432;28;20043;-78
2022/06/25 00:42:18;;;;;;;27.35;24.85;;;18.40;99.90;;;;;;5072059;28;20036;-78
2022/06/25 00:44:44;;;;;;;25.88;23.55;;;18.40;99.90;;;;;;5051581;28;20052;-77
2022/06/25 00:47:12;;;;;;;26.70;24.00;;;18.40;99.90;;;;;;5088522;28;20134;-78
2022/06/25 00:49:39;;;;;;;25.15;22.85;;;18.40;99.90;;;;;;5087509;28;20044;-77
2022/06/25 00:52:34;;;;;;;23.48;21.42;;;18.30;99.90;;;;;;5053158;28;20044;-78
2022/06/25 00:55:06;;;;;;;23.73;21.55;;;18.40;99.90;;;;;;5076856;28;20484;-76
2022/06/25 00:57:33;;;;;;;22.80;20.73;;;18.30;99.90;;;;;;5102320;28;20055;-77
2022/06/25 01:00:04;;;;;;;24.10;21.63;;;18.30;99.90;;;;;;5070215;28;20036;-78
2022/06/25 01:02:30;;;;;;;25.15;22.95;;;18.30;99.90;;;;;;5051607;28;20471;-78
2022/06/25 01:04:56;;;;;;;24.38;22.15;;;18.30;99.90;;;;;;5069735;28;20040;-78
2022/06/25 01:07:22;;;;;;;23.40;21.05;;;18.30;99.90;;;;;;5067590;28;20089;-78
2022/06/25 01:09:51;;;;;;;24.02;21.52;;;18.30;99.90;;;;;;5071241;28;20044;-79
2022/06/25 01:12:16;;;;;;;23.20;21.23;;;18.20;99.90;;;;;;5065748;28;20052;-77
2022/06/25 01:14:43;;;;;;;25.88;23.58;;;18.20;99.90;;;;;;5086873;28;20048;-77
2022/06/25 01:17:09;;;;;;;23.13;20.92;;;18.20;99.90;;;;;;5071762;28;20066;-78
2022/06/25 01:19:36;;;;;;;25.45;22.98;;;18.20;99.90;;;;;;5086799;28;20126;-78
2022/06/25 01:22:06;;;;;;;22.67;20.77;;;18.20;99.90;;;;;;5059162;28;20487;-78
2022/06/25 01:24:32;;;;;;;21.90;19.83;;;18.20;99.90;;;;;;5068008;28;20516;-78
2022/06/25 01:26:58;;;;;;;22.90;20.23;;;18.20;99.90;;;;;;5069807;28;20097;-78
2022/06/25 01:29:24;;;;;;;23.10;20.88;;;18.20;99.90;;;;;;5046709;28;20093;-78
2022/06/25 01:31:51;;;;;;;22.25;19.92;;;18.20;99.90;;;;;;5069742;28;20047;-77
2022/06/25 01:34:17;;;;;;;23.85;21.45;;;18.20;99.90;;;;;;5089426;28;20044;-78
2022/06/25 01:36:43;;;;;;;23.10;21.02;;;17.70;99.90;;;;;;5045612;28;20036;-78
2022/06/25 01:39:09;;;;;;;22.95;20.80;;;18.10;99.90;;;;;;5088713;28;20097;-79
2022/06/25 01:41:35;;;;;;;22.45;20.60;;;18.00;99.90;;;;;;5046571;28;20381;-78
2022/06/25 01:44:01;;;;;;;21.95;19.88;;;18.10;99.90;;;;;;5041740;28;20059;-78
2022/06/25 01:46:27;;;;;;;20.40;18.60;;;18.00;99.90;;;;;;5084630;28;20464;-78
2022/06/25 01:48:53;;;;;;;20.98;19.02;;;18.00;99.90;;;;;;5069830;28;20028;-78
2022/06/25 01:51:20;;;;;;;20.08;18.17;;;18.30;99.90;;;;;;5089246;28;20093;-78
2022/06/25 01:53:47;;;;;;;20.77;18.30;;;18.00;99.90;;;;;;5068165;28;20082;-78
2022/06/25 01:56:12;;;;;;;20.77;18.88;;;18.00;99.90;;;;;;5089089;28;20142;-78
2022/06/25 01:58:38;;;;;;;21.35;19.23;;;18.00;99.90;;;;;;5052755;28;20036;-77
2022/06/25 02:01:05;;;;;;;18.38;16.77;;;18.00;99.90;;;;;;5056887;28;20045;-78
2022/06/25 02:03:31;;;;;;;17.90;16.30;;;18.00;99.90;;;;;;5085395;28;20052;-78
2022/06/25 02:05:57;;;;;;;18.40;16.70;;;18.00;99.90;;;;;;5070148;28;20127;-78
2022/06/25 02:08:28;;;;;;;16.88;15.45;;;17.90;99.90;;;;;;5088104;28;20043;-78
2022/06/25 02:10:54;;;;;;;18.23;16.65;;;18.00;99.90;;;;;;5044529;28;20043;-78
2022/06/25 02:13:21;;;;;;;16.95;15.50;;;17.90;99.90;;;;;;5053177;28;20040;-78
2022/06/25 02:15:47;;;;;;;18.65;17.08;;;18.70;99.90;;;;;;5069362;28;20074;-77
2022/06/25 02:18:12;;;;;;;15.63;14.10;;;18.10;99.90;;;;;;5070405;28;20408;-78
2022/06/25 02:20:39;;;;;;;16.27;14.80;;;17.80;99.90;;;;;;5069141;28;20042;-77
2022/06/25 02:23:06;;;;;;;17.45;15.82;;;17.80;99.90;;;;;;5069297;28;20083;-78
2022/06/25 02:25:32;;;;;;;16.10;14.48;;;17.80;99.90;;;;;;5050947;28;20052;-77
2022/06/25 02:27:57;;;;;;;16.33;14.88;;;17.80;99.90;;;;;;5046583;28;20044;-77
2022/06/25 02:30:23;;;;;;;15.85;14.23;;;17.80;99.90;;;;;;5045802;28;20036;-77
2022/06/25 02:32:49;;;;;;;15.93;14.38;;;17.70;99.90;;;;;;5046676;28;20114;-77
2022/06/25 02:35:15;;;;;;;17.92;14.23;;;17.70;99.90;;;;;;5047482;28;20041;-77
2022/06/25 02:37:40;;;;;;;14.50;13.20;;;17.70;99.90;;;;;;5047832;28;20043;-76
2022/06/25 02:40:07;;;;;;;14.85;13.63;;;17.60;99.90;;;;;;5046680;28;20268;-77
2022/06/25 02:42:37;;;;;;;15.35;13.93;;;17.60;99.90;;;;;;5046509;28;20052;-77
2022/06/25 02:45:04;;;;;;;13.98;12.75;;;17.70;99.90;;;;;;5040282;28;20098;-78
2022/06/25 02:47:30;;;;;;;15.82;14.38;;;17.60;99.90;;;;;;5047116;28;20468;-77
2022/06/25 02:49:56;;;;;;;14.57;13.05;;;17.60;99.90;;;;;;5029166;28;20045;-77
2022/06/25 02:52:21;;;;;;;13.43;12.32;;;17.50;99.90;;;;;;5046689;28;20254;-78
2022/06/25 02:54:47;;;;;;;14.38;13.18;;;17.60;99.90;;;;;;5046160;28;20037;-77
2022/06/25 02:59:57;;;;;;;14.45;13.20;;;17.60;99.90;;;;;;5046188;28;20049;-77
2022/06/25 03:02:23;;;;;;;12.90;11.80;;;17.60;99.90;;;;;;5029784;28;20083;-77
2022/06/25 03:04:48;;;;;;;14.30;13.00;;;17.50;99.90;;;;;;5046820;28;20041;-78
2022/06/25 03:07:14;;;;;;;16.17;13.27;;;18.30;99.90;;;;;;5030074;28;20125;-78
2022/06/25 03:09:40;;;;;;;13.23;11.98;;;17.50;99.90;;;;;;5029660;28;20086;-78
2022/06/25 03:12:07;;;;;;;12.77;11.77;;;17.30;99.90;;;;;;5045603;28;20048;-78
2022/06/25 03:14:33;;;;;;;12.50;11.40;;;17.50;99.90;;;;;;5046411;28;20544;-78
2022/06/25 03:17:00;;;;;;;11.60;10.60;;;17.50;99.90;;;;;;5029392;28;20516;-78
2022/06/25 03:19:26;;;;;;;13.65;12.45;;;17.50;99.90;;;;;;5045946;28;20052;-77
2022/06/25 03:21:51;;;;;;;12.73;11.63;;;17.50;99.90;;;;;;5045837;28;20041;-78
2022/06/25 03:24:17;;;;;;;12.77;11.50;;;17.90;99.90;;;;;;5049153;28;20432;-78
2022/06/25 03:26:43;;;;;;;12.00;11.00;;;17.40;99.90;;;;;;5050575;28;20068;-77
2022/06/25 03:29:09;;;;;;;11.93;10.98;;;17.40;99.90;;;;;;5051430;28;20052;-77
2022/06/25 03:31:35;;;;;;;11.55;10.63;;;18.40;99.90;;;;;;5049455;28;20033;-77
2022/06/25 03:34:01;;;;;;;12.25;10.93;;;17.40;99.90;;;;;;5033524;28;20037;-78
2022/06/25 03:36:26;;;;;;;13.15;10.15;;;18.20;99.90;;;;;;5050463;28;20045;-77
2022/06/25 03:38:52;;;;;;;12.63;11.40;;;17.70;99.90;;;;;;5032615;28;20159;-77
2022/06/25 03:41:35;;;;;;;13.50;11.15;;;17.70;99.90;;;;;;5050110;28;20037;-77
2022/06/25 03:44:05;;;;;;;11.98;10.88;;;17.40;99.90;;;;;;5049856;28;20044;-77
2022/06/25 03:46:33;;;;;;;10.68;9.68;;;17.30;99.90;;;;;;5033114;28;20048;-78
2022/06/25 03:48:59;;;;;;;10.50;9.48;;;17.30;99.90;;;;;;5050687;28;20040;-77
2022/06/25 03:51:25;;;;;;;11.80;10.77;;;17.30;99.90;;;;;;5050280;28;20064;-78
2022/06/25 03:53:51;;;;;;;11.00;9.48;;;17.70;99.90;;;;;;5048605;28;20079;-78
2022/06/25 03:56:17;;;;;;;10.85;9.95;;;17.20;99.90;;;;;;5050340;28;20065;-77
2022/06/25 03:58:43;;;;;;;12.82;9.70;;;17.30;99.90;;;;;;5049307;28;20049;-76
2022/06/25 04:01:08;;;;;;;10.20;9.20;;;17.20;99.90;;;;;;5048829;28;20041;-76
2022/06/25 04:03:34;;;;;;;12.13;9.80;;;17.20;99.90;;;;;;5033224;28;20037;-77
2022/06/25 04:06:02;;;;;;;10.93;9.82;;;17.20;99.90;;;;;;5033181;28;20044;-77
2022/06/25 04:08:27;;;;;;;10.45;9.52;;;18.10;99.90;;;;;;5050463;28;20091;-78
2022/06/25 04:10:53;;;;;;;9.02;8.15;;;17.70;99.90;;;;;;5049318;28;20033;-77
2022/06/25 04:13:19;;;;;;;10.10;9.07;;;17.10;99.90;;;;;;5049930;28;20071;-78
2022/06/25 04:15:45;;;;;;;10.15;9.25;;;17.10;99.90;;;;;;5050007;28;20037;-76
2022/06/25 04:18:11;;;;;;;9.32;7.72;;;17.00;99.90;;;;;;5051089;28;20619;-78
2022/06/25 04:20:37;;;;;;;9.43;8.63;;;17.10;99.90;;;;;;5049202;28;20057;-77
2022/06/25 04:23:03;;;;;;;11.32;9.50;;;16.60;99.90;;;;;;5050933;28;20507;-75
2022/06/25 04:25:28;;;;;;;8.75;7.88;;;17.00;99.90;;;;;;5050305;28;20124;-77
2022/06/25 04:30:38;;;;;;;9.63;8.73;;;17.10;99.90;;;;;;5045074;28;20045;-75
2022/06/25 04:33:03;;;;;;;8.60;7.72;;;17.10;99.90;;;;;;5032568;28;20041;-77
2022/06/25 04:35:29;;;;;;;9.20;8.40;;;17.10;99.90;;;;;;5049152;28;20041;-76
2022/06/25 04:37:55;;;;;;;8.90;8.10;;;17.10;99.90;;;;;;5048654;28;20548;-77
2022/06/25 04:40:20;;;;;;;8.75;7.95;;;17.10;99.90;;;;;;5032440;28;20053;-77
2022/06/25 04:42:46;;;;;;;9.23;8.23;;;17.10;99.90;;;;;;5049200;28;20052;-77
2022/06/25 04:45:12;;;;;;;9.10;8.40;;;17.40;99.90;;;;;;5049071;28;20037;-77
2022/06/25 04:47:38;;;;;;;8.85;7.97;;;17.30;99.90;;;;;;5049119;28;20068;-76
2022/06/25 04:50:05;;;;;;;8.85;8.13;;;17.60;99.90;;;;;;5047812;28;20083;-77
2022/06/25 04:52:31;;;;;;;8.82;7.97;;;17.10;99.90;;;;;;5048838;28;20048;-76
2022/06/25 04:54:57;;;;;;;8.50;7.70;;;17.10;99.90;;;;;;5049528;28;20052;-78
2022/06/25 04:57:22;;;;;;;7.85;7.15;;;17.20;99.90;;;;;;5048193;28;20037;-78
2022/06/25 04:59:48;;;;;;;8.43;7.70;;;17.10;99.90;;;;;;5064958;28;20544;-78
2022/06/25 05:02:15;;;;;;;8.65;7.85;;;17.20;99.90;;;;;;5049040;28;20529;-78
2022/06/25 05:04:40;;;;;;;8.63;7.35;;;17.20;99.90;;;;;;5064290;28;20415;-77
2022/06/25 05:07:07;;;;;;;10.75;7.40;;;17.20;99.90;;;;;;5049097;28;20055;-77
2022/06/25 05:09:32;;;;;;;8.85;7.95;;;18.00;99.90;;;;;;5048629;28;20534;-77
2022/06/25 05:11:58;;;;;;;8.77;7.07;;;17.20;99.90;;;;;;5047256;28;20057;-77
2022/06/25 05:14:23;;;;;;;8.82;7.70;;;18.10;99.90;;;;;;5049680;28;20040;-78
2022/06/25 05:16:49;;;;;;;7.95;6.70;;;17.30;99.90;;;;;;5048139;28;20037;-76
2022/06/25 05:19:15;;;;;;;8.48;6.70;;;17.30;99.90;;;;;;5031132;28;20033;-77
2022/06/25 05:21:42;;;;;;;7.65;6.85;;;18.20;99.90;;;;;;5047991;28;20033;-76
2022/06/25 05:24:07;;;;;;;8.30;7.53;;;17.40;99.90;;;;;;5065316;28;20060;-77
2022/06/25 05:26:33;;;;;;;8.40;7.60;;;17.40;99.90;;;;;;5049648;28;20814;-77
2022/06/25 05:28:59;;;;;;;10.63;6.97;;;17.50;99.90;;;;;;5047910;28;20053;-78
2022/06/25 05:31:24;;;;;;;8.43;6.93;;;17.50;99.90;;;;;;5049183;28;20036;-77
2022/06/25 05:33:50;;;;;;;7.30;6.57;;;17.50;99.90;;;;;;5047299;28;20493;-76
2022/06/25 05:36:17;;;;;;;8.35;7.55;;;18.00;99.90;;;;;;5031495;28;20100;-77
2022/06/25 05:38:42;;;;;;;10.40;7.78;;;17.50;99.90;;;;;;5048354;28;20044;-77
2022/06/25 05:41:08;;;;;;;7.90;6.60;;;17.50;99.90;;;;;;5049250;28;20037;-76
2022/06/25 05:43:38;;;;;;;7.50;6.75;;;17.90;99.90;;;;;;5049165;28;20472;-77
2022/06/25 05:46:04;;;;;;;7.70;6.95;;;17.60;99.90;;;;;;5047497;28;20037;-78
2022/06/25 05:48:29;;;;;;;7.55;6.78;;;17.60;99.90;;;;;;5049129;28;20037;-80
2022/06/25 05:50:56;;;;;;;8.85;7.00;;;17.70;99.90;;;;;;5047071;28;20041;-77
2022/06/25 05:53:22;;;;;;;11.82;9.32;;;17.70;99.90;;;;;;5048658;28;20045;-78
2022/06/25 05:55:48;;;;;;;12.85;11.48;;;17.70;99.90;;;;;;5048654;28;20397;-79
2022/06/25 05:58:14;;;;;;;10.40;7.43;;;17.80;99.90;;;;;;5049156;28;20037;-77
2022/06/25 06:00:39;;;;;;;8.32;7.45;;;17.80;99.90;;;;;;5046808;28;20503;-76
2022/06/25 06:03:05;;;;;;;13.60;7.78;;;17.80;99.90;;;;;;5047705;28;20136;-77
2022/06/25 06:05:31;;;;;;;7.85;6.35;;;17.80;99.90;;;;;;5031771;28;20044;-77
2022/06/25 06:07:57;;;;;;;7.53;6.70;;;18.10;99.90;;;;;;5046597;28;20052;-76
2022/06/25 06:10:23;;;;;;;7.63;6.90;;;18.00;99.90;;;;;;5047357;28;20388;-76
2022/06/25 06:12:48;;;;;;;8.25;7.45;;;18.00;99.90;;;;;;5046730;28;20041;-76
2022/06/25 06:15:14;;;;;;;8.35;7.45;;;18.40;99.90;;;;;;5046999;28;20435;-77
2022/06/25 06:17:40;;;;;;;9.02;6.38;;;18.10;99.90;;;;;;5047032;28;20033;-79
2022/06/25 06:20:06;;;;;;;7.78;6.30;;;18.20;99.90;;;;;;5030799;28;20044;-76
2022/06/25 06:22:33;;;;;;;7.05;6.35;;;18.20;99.90;;;;;;5048513;28;20041;-77
2022/06/25 06:24:58;;;;;;;8.23;7.45;;;18.70;99.90;;;;;;5071135;28;20087;-77
2022/06/25 06:27:24;;;;;;;8.60;7.05;;;18.30;99.90;;;;;;5088945;28;20071;-77
2022/06/25 06:29:50;;;;;;;7.38;6.57;;;18.40;99.90;;;;;;5088544;28;20043;-77
2022/06/25 06:32:16;;;;;;;8.10;6.45;;;18.50;99.90;;;;;;5070475;28;20040;-77
2022/06/25 06:34:42;;;;;;;10.20;6.38;;;18.40;99.90;;;;;;5053634;28;20063;-77
2022/06/25 06:37:08;;;;;;;11.10;5.88;;;18.40;99.90;;;;;;5072019;28;20040;-77
2022/06/25 06:39:33;;;;;;;7.65;5.65;;;18.50;99.90;;;;;;5067573;28;20054;-77
2022/06/25 06:41:59;;;;;;;9.50;6.47;;;18.50;99.90;;;;;;5049098;28;20391;-76
2022/06/25 06:44:25;;;;;;;7.35;5.75;;;18.50;99.90;;;;;;5088544;28;20040;-77
2022/06/25 06:46:51;;;;;;;8.88;6.28;;;18.80;99.90;;;;;;5086401;28;20490;-78
2022/06/25 06:49:16;;;;;;;9.05;6.10;;;18.60;99.90;;;;;;5064684;28;20476;-77
2022/06/25 06:51:42;;;;;;;9.30;6.25;;;18.70;99.90;;;;;;5067575;28;20062;-78
2022/06/25 06:54:08;;;;;;;9.73;5.50;;;18.90;99.90;;;;;;5053883;28;20108;-78
2022/06/25 06:56:33;;;;;;;6.63;5.72;;;18.80;99.90;;;;;;5083498;28;20033;-78
2022/06/25 06:58:59;;;;;;;5.82;5.20;;;18.90;99.90;;;;;;5072547;28;20471;-77
2022/06/25 07:01:25;;;;;;;8.52;5.05;;;18.90;99.90;;;;;;5071113;28;20043;-77
2022/06/25 07:03:51;;;;;;;6.75;4.30;;;19.30;99.90;;;;;;5073436;28;20071;-77
2022/06/25 07:06:17;;;;;;;4.95;4.53;;;19.00;99.90;;;;;;5085552;28;20072;-77
2022/06/25 07:08:43;;;;;;;8.00;4.50;;;19.00;99.90;;;;;;5057223;28;20036;-78
2022/06/25 07:13:53;;;;;;;;;;;19.10;99.90;;;;;;5087567;28;20134;-78
2022/06/25 07:16:19;;;;;;;4.78;4.38;;;19.10;99.90;;;;;;5071869;28;20010;-77
2022/06/25 07:18:45;;;;;;;7.72;4.10;;;19.20;99.90;;;;;;5072987;28;20121;-78
2022/06/25 07:21:14;;;;;;;6.18;4.55;;;19.20;99.90;;;;;;5071616;28;20565;-76
2022/06/25 07:23:42;;;;;;;8.38;3.78;;;19.30;99.90;;;;;;5072918;28;20090;-76
2022/06/25 07:26:09;;;;;;;4.82;4.07;;;19.30;99.90;;;;;;5073072;28;20041;-77
2022/06/25 07:28:34;;;;;;;4.78;4.00;;;19.40;99.90;;;;;;5056248;28;20028;-77
2022/06/25 07:31:00;;;;;;;4.97;3.80;;;19.40;99.90;;;;;;5066590;28;20479;-77
2022/06/25 07:33:29;;;;;;;6.20;3.08;;;19.50;99.90;;;;;;5089589;28;20036;-78
2022/06/25 07:35:55;;;;;;;4.85;3.78;;;19.50;99.90;;;;;;5050355;28;20040;-78
2022/06/25 07:38:21;;;;;;;4.65;3.20;;;19.50;99.90;;;;;;5054315;28;20411;-78
2022/06/25 07:40:47;;;;;;;16.67;13.93;;;19.60;99.90;;;;;;5087605;28;20040;-77
2022/06/25 07:43:13;;;;;;;6.18;3.90;;;19.60;99.90;;;;;;5071338;28;20126;-78
2022/06/25 07:45:38;;;;;;;4.07;3.00;;;19.70;99.90;;;;;;5086050;28;20339;-77
2022/06/25 07:48:04;;;;;;;6.93;3.05;;;19.60;99.90;;;;;;5073330;28;20567;-77
2022/06/25 07:53:14;;;;;;;;;;;19.80;99.90;;;;;;5069909;28;20437;-77
2022/06/25 07:55:40;;;;;;;5.45;2.20;;;19.80;99.90;;;;;;5071579;28;19924;-76
2022/06/25 07:58:06;;;;;;;4.93;2.53;;;19.80;99.90;;;;;;5063038;28;20044;-76
2022/06/25 08:00:33;;;;;;;2.97;2.03;;;19.90;99.90;;;;;;5091134;28;20043;-76
2022/06/25 08:02:58;;;;;;;9.75;2.40;;;20.00;99.90;;;;;;5066078;28;20083;-77
2022/06/25 08:05:25;;;;;;;4.78;2.15;;;20.30;99.90;;;;;;5054327;28;20078;-77
2022/06/25 08:07:51;;;;;;;5.20;2.38;;;20.10;99.90;;;;;;5072947;28;20112;-77
2022/06/25 08:10:17;;;;;;;2.00;1.90;;;20.10;99.90;;;;;;5054347;28;20048;-77
2022/06/25 08:12:43;;;;;;;6.75;2.72;;;20.10;99.90;;;;;;5072264;28;20042;-77
2022/06/25 08:15:11;;;;;;;4.80;2.40;;;20.10;99.90;;;;;;5091565;28;20047;-77
2022/06/25 08:17:37;;;;;;;5.43;2.72;;;20.20;99.90;;;;;;5050136;28;20399;-75
2022/06/25 08:20:03;;;;;;;5.93;1.92;;;20.20;99.90;;;;;;5069181;28;20109;-78
2022/06/25 08:22:29;;;;;;;4.45;2.63;;;20.20;99.90;;;;;;5084493;28;20036;-74
2022/06/25 08:24:56;;;;;;;5.43;2.38;;;20.40;99.90;;;;;;5087028;28;20044;-73
2022/06/25 08:27:22;;;;;;;5.05;2.30;;;20.50;99.90;;;;;;5086454;28;20044;-73
2022/06/25 08:29:49;;;;;;;5.10;2.60;;;20.50;99.90;;;;;;5088475;28;20087;-72
2022/06/25 08:32:14;;;;;;;5.10;2.17;;;20.60;99.90;;;;;;5080777;28;20498;-74
2022/06/25 08:34:40;;;;;;;6.32;2.35;;;20.60;99.90;;;;;;5066446;28;20040;-73
2022/06/25 08:37:06;;;;;;;8.10;2.58;;;20.70;99.90;;;;;;5088084;28;20059;-74
2022/06/25 08:39:32;;;;;;;2.75;1.67;;;20.70;99.90;;;;;;5071049;28;20031;-73
2022/06/25 08:42:03;;;;;;;2.33;1.45;;;20.70;99.90;;;;;;5086002;28;20368;-76
2022/06/25 08:44:33;;;;;;;3.67;1.27;;;20.80;99.90;;;;;;5071347;28;20044;-76
2022/06/25 08:46:59;;;;;;;2.45;1.73;;;20.70;99.90;;;;;;5070692;28;20075;-74
2022/06/25 08:49:26;;;;;;;5.70;1.73;;;20.60;99.90;;;;;;5089794;28;20092;-74
2022/06/25 08:51:57;;;;;;;4.55;1.95;;;20.70;99.90;;;;;;5088916;28;20085;-77
2022/06/25 08:54:24;;;;;;;4.18;1.83;;;20.80;99.90;;;;;;5069459;28;20044;-77
2022/06/25 08:56:58;;;;;;;6.65;2.70;;;20.70;99.90;;;;;;5079354;28;20063;-76
2022/06/25 08:59:25;;;;;;;3.38;2.63;;;20.90;99.90;;;;;;5071639;28;20055;-78
2022/06/25 09:01:51;;;;;;;7.65;1.98;;;20.90;99.90;;;;;;5070593;28;20543;-77
2022/06/25 09:04:22;;;;;;;4.22;2.30;;;20.90;99.90;;;;;;5086339;28;20075;-76
2022/06/25 09:06:50;;;;;;;7.32;2.08;;;20.90;99.90;;;;;;5042068;28;20048;-77
2022/06/25 09:09:16;;;;;;;3.80;1.80;;;20.90;99.90;;;;;;5071861;28;20569;-76
2022/06/25 09:12:05;;;;;;;4.90;1.45;;;20.90;99.90;;;;;;5090716;28;20039;-77
2022/06/25 09:14:32;;;;;;;4.13;1.73;;;20.90;99.90;;;;;;5053569;28;20044;-77
2022/06/25 09:17:01;;;;;;;4.78;2.03;;;21.20;99.90;;;;;;5071603;28;20679;-77
2022/06/25 09:19:29;;;;;;;1.70;1.55;;;20.90;99.90;;;;;;5054399;28;20048;-78
2022/06/25 09:21:54;;;;;;;2.75;1.13;;;21.00;99.90;;;;;;5069913;28;20032;-78
2022/06/25 09:24:20;;;;;;;5.70;1.33;;;21.10;99.90;;;;;;5089351;28;20051;-81
2022/06/25 09:26:52;;;;;;;3.13;1.00;;;21.10;99.90;;;;;;5070497;28;20407;-77
2022/06/25 09:29:18;;;;;;;3.67;1.30;;;21.20;99.90;;;;;;5084819;28;20093;-77
2022/06/25 09:31:44;;;;;;;5.68;4.43;;;21.20;99.90;;;;;;5070935;28;20039;-77
2022/06/25 09:34:10;;;;;;;2.78;1.50;;;21.30;99.90;;;;;;5089735;28;20032;-78
2022/06/25 09:36:39;;;;;;;2.17;1.00;;;21.30;99.90;;;;;;5070526;28;20048;-78
2022/06/25 09:39:04;;;;;;;2.33;0.98;;;21.80;99.90;;;;;;5042627;28;20514;-77
2022/06/25 09:41:50;;;;;;;1.40;1.30;;;21.40;99.90;;;;;;5070283;28;20032;-78
2022/06/25 09:44:19;;;;;;;2.28;1.17;;;21.50;99.90;;;;;;5084435;28;20044;-77
2022/06/25 09:46:56;;;;;;;1.75;1.00;;;21.60;99.90;;;;;;5070594;28;20036;-78
2022/06/25 09:49:27;;;;;;;2.90;0.82;;;21.60;99.90;;;;;;5085367;28;20083;-77
2022/06/25 09:52:03;;;;;;;2.50;1.08;;;21.60;99.90;;;;;;5070377;28;20044;-77
2022/06/25 09:54:32;;;;;;;1.85;0.75;;;21.60;99.90;;;;;;5054517;28;20048;-77
2022/06/25 09:57:04;;;;;;;5.78;1.00;;;21.70;99.90;;;;;;5066657;28;20123;-77
2022/06/25 09:59:31;;;;;;;3.60;0.95;;;21.60;99.90;;;;;;5070216;28;20135;-76
2022/06/25 10:01:58;;;;;;;4.72;1.08;;;21.90;99.90;;;;;;5053668;28;20056;-77
2022/06/25 10:04:28;;;;;;;1.67;0.93;;;21.70;99.90;;;;;;5064997;28;20130;-77
2022/06/25 10:06:55;;;;;;;2.50;0.90;;;21.90;99.90;;;;;;5069917;28;20089;-77
2022/06/25 10:09:24;;;;;;;2.60;1.23;;;22.00;99.90;;;;;;5054125;28;20043;-77
2022/06/25 10:11:50;;;;;;;3.83;0.75;;;22.10;99.90;;;;;;5079839;28;20040;-76
2022/06/25 10:14:16;;;;;;;2.28;1.15;;;22.20;99.90;;;;;;5048759;28;20051;-77
2022/06/25 10:16:43;;;;;;;2.10;0.80;;;22.20;99.90;;;;;;5085420;28;20072;-76
2022/06/25 10:19:10;;;;;;;2.55;0.90;;;22.20;99.90;;;;;;5069439;28;20081;-76
2022/06/25 10:21:36;;;;;;;1.92;0.82;;;22.30;99.90;;;;;;5088068;28;20484;-76
2022/06/25 10:24:05;;;;;;;1.42;0.47;;;22.40;99.90;;;;;;5065198;28;20090;-76
2022/06/25 10:26:32;;;;;;;2.95;0.70;;;22.30;99.90;;;;;;5069961;28;20047;-77
2022/06/25 10:29:02;;;;;;;1.60;0.90;;;22.40;99.90;;;;;;5088328;28;20043;-75
2022/06/25 10:31:28;;;;;;;5.38;0.90;;;22.50;99.90;;;;;;5070208;28;20036;-74
2022/06/25 10:34:04;;;;;;;2.75;1.00;;;22.40;99.90;;;;;;5068717;28;20052;-74
2022/06/25 10:36:39;;;;;;;4.15;0.80;;;22.40;99.90;;;;;;5088892;28;20845;-74
2022/06/25 10:39:27;;;;;;;3.05;0.75;;;22.30;99.90;;;;;;5080924;28;20085;-74
2022/06/25 10:45:05;;;;;;;3.58;0.60;;;22.20;99.90;;;;;;5062006;28;20457;-73
2022/06/25 10:47:39;;;;;;;3.30;0.65;;;22.10;99.90;;;;;;5069430;28;20039;-74
2022/06/25 10:50:23;;;;;;;1.52;0.60;;;22.00;99.90;;;;;;5069735;28;20036;-75
2022/06/25 10:53:05;;;;;;;3.83;0.70;;;22.00;99.90;;;;;;5044607;28;20059;-76
2022/06/25 10:55:47;;;;;;;3.10;0.63;;;21.90;99.90;;;;;;5083531;28;20047;-74
2022/06/25 10:58:15;;;;;;;2.58;0.60;;;21.90;99.90;;;;;;5084813;28;20056;-73
2022/06/25 11:01:01;;;;;;;3.10;0.60;;;21.80;99.90;;;;;;5068324;28;20036;-73
2022/06/25 11:03:32;;;;;;;3.53;0.60;;;21.70;99.90;;;;;;5084018;28;20079;-73
2022/06/25 11:06:29;;;;;;;1.63;0.65;;;21.60;99.90;;;;;;5063268;28;20079;-73
2022/06/25 11:09:03;;;;;;;2.25;1.02;;;21.60;99.90;;;;;;5068685;28;20089;-73
2022/06/25 11:11:31;;;;;;;2.92;0.80;;;21.60;99.90;;;;;;5069075;28;20043;-72
2022/06/25 11:13:58;;;;;;;1.85;0.60;;;21.60;99.90;;;;;;5051781;28;20084;-73
2022/06/25 11:16:24;;;;;;;3.65;0.82;;;21.60;99.90;;;;;;5067405;28;20032;-78
2022/06/25 11:18:58;;;;;;;4.45;0.73;;;21.80;99.90;;;;;;5050514;28;20130;-74
2022/06/25 11:21:24;;;;;;;;;;;22.10;99.90;;;;;;5085169;28;20048;-73
2022/06/25 11:23:50;;;;;;;5.40;0.90;;;22.30;99.90;;;;;;5050963;28;19928;-72
2022/06/25 11:29:02;;;;;;;2.25;0.68;;;22.60;99.90;;;;;;5085142;28;20047;-76
2022/06/25 11:31:27;;;;;;;3.30;0.73;;;22.70;99.90;;;;;;5087298;28;20534;-76
2022/06/25 11:33:54;;;;;;;6.22;0.88;;;22.70;99.90;;;;;;5069165;28;20039;-73
2022/06/25 11:36:20;;;;;;;2.30;1.17;;;22.80;99.90;;;;;;5067904;28;20468;-74
2022/06/25 11:38:54;;;;;;;2.25;0.73;;;22.90;99.90;;;;;;5069229;28;20028;-75
2022/06/25 11:41:31;;;;;;;5.60;0.70;;;23.00;99.90;;;;;;5068336;28;20062;-77
2022/06/25 11:44:07;;;;;;;4.50;0.45;;;23.00;99.90;;;;;;5044060;28;20475;-75
2022/06/25 11:46:35;;;;;;;2.10;0.63;;;22.90;99.90;;;;;;5053169;28;20043;-76
2022/06/25 11:49:04;;;;;;;1.10;0.60;;;23.00;99.90;;;;;;5066019;28;20212;-76
2022/06/25 11:51:31;;;;;;;2.78;0.35;;;22.80;99.90;;;;;;5074200;28;20165;-76
2022/06/25 11:54:02;;;;;;;2.13;0.47;;;22.80;99.90;;;;;;5056876;28;20051;-77
2022/06/25 11:56:28;;;;;;;1.38;0.50;;;22.60;99.90;;;;;;5057425;28;20032;-76
2022/06/25 11:58:54;;;;;;;1.98;0.80;;;22.50;99.90;;;;;;5054560;28;20063;-77
2022/06/25 12:01:29;;;;;;;2.22;0.60;;;22.50;99.90;;;;;;5073273;28;20036;-77
2022/06/25 12:03:57;;;;;;;2.83;0.75;;;22.40;99.90;;;;;;5071806;28;20055;-77
2022/06/25 12:06:23;;;;;;;2.90;0.70;;;22.30;99.90;;;;;;5068290;28;20054;-77
2022/06/25 12:08:50;;;;;;;3.15;0.68;;;22.20;99.90;;;;;;5104163;28;20495;-77
2022/06/25 12:11:16;;;;;;;1.70;0.73;;;22.10;99.90;;;;;;5050731;28;20045;-77
2022/06/25 12:13:42;;;;;;;2.55;0.73;;;22.10;99.90;;;;;;5072228;28;20399;-77
2022/06/25 12:16:07;;;;;;;1.63;0.60;;;22.00;99.90;;;;;;5072988;28;20052;-77
2022/06/25 12:18:36;;;;;;;2.72;0.88;;;21.90;99.90;;;;;;5072908;28;20543;-77
2022/06/25 12:21:02;;;;;;;1.52;0.63;;;21.80;99.90;;;;;;5090820;28;20123;-77
2022/06/25 12:23:28;;;;;;;1.73;1.25;;;21.70;99.90;;;;;;5056164;28;20104;-77
2022/06/25 12:25:54;;;;;;;3.65;0.75;;;21.60;99.90;;;;;;5090011;28;20036;-77
2022/06/25 12:28:36;;;;;;;1.42;1.00;;;21.60;99.90;;;;;;5073400;28;20123;-76
2022/06/25 12:31:15;;;;;;;2.90;1.23;;;21.90;99.90;;;;;;5066804;28;20477;-75
2022/06/25 12:33:49;;;;;;;4.18;1.40;;;21.40;99.90;;;;;;5072302;28;20032;-75
2022/06/25 12:36:17;;;;;;;3.35;1.65;;;21.30;99.90;;;;;;5085060;28;20040;-76
2022/06/25 12:38:43;;;;;;;4.05;1.90;;;21.30;99.90;;;;;;5055020;28;20506;-76
2022/06/25 12:41:09;;;;;;;4.70;1.52;;;21.70;99.90;;;;;;5072618;28;20036;-75
2022/06/25 12:43:45;;;;;;;3.67;1.33;;;21.10;99.90;;;;;;5090848;28;20497;-75
2022/06/25 12:46:12;;;;;;;3.53;1.67;;;21.10;99.90;;;;;;5048399;28;20502;-74
2022/06/25 12:48:38;;;;;;;4.25;1.52;;;21.00;99.90;;;;;;5072566;28;20086;-74
2022/06/25 12:51:09;;;;;;;3.65;1.65;;;21.00;99.90;;;;;;5073121;28;20076;-76
2022/06/25 12:53:35;;;;;;;3.22;1.67;;;21.00;99.90;;;;;;5056849;28;20343;-76
2022/06/25 12:56:02;;;;;;;3.25;1.70;;;21.00;99.90;;;;;;5052131;28;20368;-76
2022/06/25 12:58:39;;;;;;;3.30;1.30;;;21.00;99.90;;;;;;5072515;28;20447;-77